Time;durP1;ratioP1;P1;durP2;ratioP2;P2;SDS_P1;SDS_P2;PMS_P1;PMS_P2;Temp;Humidity;BMP_temperature;BMP_pressure;BME280_temperature;BME280_humidity;BME280_pressure;Samples;Min_cycle;Max_cycle;Signal;HPM_P1;HPM_P2
2021/06/23 00:01:10;;;;;;;14.93;7.97;;;15.70;1.00;;;;;;5071999;28;20426;-76
2021/06/23 00:03:47;;;;;;;10.90;6.93;;;15.70;1.00;;;;;;5067323;28;20883;-76
2021/06/23 00:06:35;;;;;;;13.70;7.30;;;15.70;1.00;;;;;;5060103;28;20586;-77
2021/06/23 00:09:05;;;;;;;10.90;7.23;;;15.70;1.00;;;;;;5060066;28;20888;-76
2021/06/23 00:11:42;;;;;;;15.73;7.40;;;15.70;1.00;;;;;;5053295;28;20406;-76
2021/06/23 00:14:23;;;;;;;13.23;7.90;;;15.60;1.00;;;;;;5068208;28;20418;-76
2021/06/23 00:16:53;;;;;;;15.73;6.63;;;15.60;1.00;;;;;;5073604;28;20413;-76
2021/06/23 00:19:23;;;;;;;11.90;7.10;;;15.60;1.00;;;;;;5058932;28;20485;-76
2021/06/23 00:21:53;;;;;;;14.00;6.83;;;15.50;1.00;;;;;;5053166;28;20893;-76
2021/06/23 00:24:29;;;;;;;14.53;7.77;;;15.60;1.00;;;;;;5064177;28;20771;-76
2021/06/23 00:26:55;;;;;;;14.03;7.23;;;15.60;1.00;;;;;;5070560;28;20829;-76
2021/06/23 00:29:21;;;;;;;12.30;6.30;;;15.70;1.00;;;;;;5053150;28;20481;-76
2021/06/23 00:31:47;;;;;;;12.53;7.00;;;;;;;;;;5052971;28;20176;-76
2021/06/23 00:34:22;;;;;;;17.03;7.07;;;15.80;1.00;;;;;;5053372;28;20163;-76
2021/06/23 00:36:53;;;;;;;11.97;7.10;;;15.80;1.00;;;;;;5057429;28;20429;-76
2021/06/23 00:39:53;;;;;;;11.77;7.10;;;16.00;1.00;;;;;;5052977;28;20454;-76
2021/06/23 00:42:23;;;;;;;10.57;6.00;;;16.00;1.00;;;;;;5059980;28;20761;-76
2021/06/23 00:44:49;;;;;;;12.23;6.10;;;16.00;1.00;;;;;;5072977;28;20454;-76
2021/06/23 00:47:17;;;;;;;12.27;6.40;;;16.10;1.00;;;;;;5073016;28;20859;-75
2021/06/23 00:49:47;;;;;;;16.17;6.23;;;16.20;1.00;;;;;;5064394;28;20493;-75
2021/06/23 00:52:13;;;;;;;11.27;6.37;;;;;;;;;;5064845;28;20388;-74
2021/06/23 00:54:47;;;;;;;13.70;5.90;;;16.20;1.00;;;;;;5073242;28;20863;-74
2021/06/23 00:57:18;;;;;;;19.80;6.63;;;16.30;1.00;;;;;;5068118;28;20450;-74
2021/06/23 00:59:51;;;;;;;11.27;5.70;;;16.30;1.00;;;;;;5070424;28;20452;-74
2021/06/23 01:02:20;;;;;;;12.53;6.27;;;16.40;1.00;;;;;;5052703;28;20861;-74
2021/06/23 01:04:54;;;;;;;8.20;5.77;;;16.40;1.00;;;;;;5036008;28;20753;-76
2021/06/23 01:07:23;;;;;;;15.03;6.60;;;16.40;1.00;;;;;;5066173;28;20923;-76
2021/06/23 01:09:51;;;;;;;9.30;5.80;;;16.50;1.00;;;;;;5071740;28;20399;-76
2021/06/23 01:12:26;;;;;;;8.90;6.17;;;16.50;1.00;;;;;;5069294;28;20436;-76
2021/06/23 01:14:59;;;;;;;14.33;5.80;;;16.60;1.00;;;;;;5052894;28;20406;-76
2021/06/23 01:17:31;;;;;;;16.83;5.80;;;16.60;1.00;;;;;;5051644;28;20396;-75
2021/06/23 01:20:05;;;;;;;10.23;5.13;;;16.60;1.00;;;;;;5052277;28;20481;-74
2021/06/23 01:22:39;;;;;;;10.43;5.87;;;16.60;1.00;;;;;;5052339;28;20826;-74
2021/06/23 01:25:08;;;;;;;13.93;4.97;;;16.60;1.00;;;;;;5052564;28;20420;-74
2021/06/23 01:27:35;;;;;;;8.30;4.93;;;16.70;1.00;;;;;;5052964;28;20418;-74
2021/06/23 01:30:02;;;;;;;7.93;5.07;;;16.70;1.00;;;;;;5051910;28;20864;-74
2021/06/23 01:32:42;;;;;;;12.87;5.43;;;16.70;1.00;;;;;;5052529;28;20385;-74
2021/06/23 01:35:17;;;;;;;8.03;5.33;;;16.70;1.00;;;;;;5052733;28;20419;-76
2021/06/23 01:37:44;;;;;;;10.83;5.67;;;16.70;1.00;;;;;;5062233;28;20410;-75
2021/06/23 01:40:17;;;;;;;10.30;5.70;;;16.70;1.00;;;;;;5060413;28;20410;-76
2021/06/23 01:42:43;;;;;;;10.43;5.30;;;16.70;1.00;;;;;;5072661;28;20367;-77
2021/06/23 01:45:13;;;;;;;15.00;5.10;;;16.80;1.00;;;;;;5073592;28;20390;-76
2021/06/23 01:47:39;;;;;;;16.37;6.40;;;;;;;;;;5060021;28;20450;-76
2021/06/23 01:50:06;;;;;;;5.63;5.03;;;16.80;1.00;;;;;;5056527;28;20395;-76
2021/06/23 01:52:53;;;;;;;6.63;5.43;;;16.80;1.00;;;;;;5055928;28;20453;-76
2021/06/23 01:55:28;;;;;;;8.53;5.20;;;16.80;1.00;;;;;;5056513;28;20416;-76
2021/06/23 01:58:06;;;;;;;14.20;5.83;;;16.80;1.00;;;;;;5060317;28;20449;-76
2021/06/23 02:01:06;;;;;;;12.37;6.43;;;16.80;1.00;;;;;;5055454;28;20947;-76
2021/06/23 02:03:38;;;;;;;11.90;5.53;;;16.80;1.00;;;;;;5055702;28;20405;-74
2021/06/23 02:06:51;;;;;;;10.33;5.67;;;16.80;1.00;;;;;;5063521;28;20386;-74
2021/06/23 02:09:53;;;;;;;10.37;5.50;;;16.80;1.00;;;;;;5033074;28;20948;-74
2021/06/23 02:12:23;;;;;;;8.87;5.50;;;16.80;1.00;;;;;;5033306;28;20822;-74
2021/06/23 02:14:59;;;;;;;8.37;5.10;;;16.80;1.00;;;;;;5037079;28;20481;-74
2021/06/23 02:17:28;;;;;;;10.17;5.60;;;16.70;1.00;;;;;;5018728;28;20402;-74
2021/06/23 02:20:02;;;;;;;11.10;5.47;;;16.70;1.00;;;;;;5053584;28;20877;-74
2021/06/23 02:22:42;;;;;;;7.53;5.60;;;16.70;1.00;;;;;;5053211;28;20362;-74
2021/06/23 02:25:23;;;;;;;7.30;4.80;;;16.70;1.00;;;;;;5046385;28;20414;-74
2021/06/23 02:28:00;;;;;;;11.17;5.70;;;16.60;1.00;;;;;;5033006;28;20429;-74
2021/06/23 02:30:26;;;;;;;9.20;5.77;;;16.60;1.00;;;;;;5043554;28;20521;-74
2021/06/23 02:32:55;;;;;;;8.33;5.80;;;16.70;1.00;;;;;;5036605;28;20437;-74
2021/06/23 02:35:24;;;;;;;9.43;6.90;;;16.70;1.00;;;;;;5033389;28;20426;-76
2021/06/23 02:37:54;;;;;;;15.67;5.80;;;16.70;1.00;;;;;;5032885;28;20482;-76
2021/06/23 02:40:21;;;;;;;9.27;6.00;;;16.70;1.00;;;;;;5032637;28;20431;-76
2021/06/23 02:42:48;;;;;;;16.40;5.60;;;16.70;1.00;;;;;;5033106;28;20473;-76
2021/06/23 02:45:47;;;;;;;16.10;6.40;;;16.70;1.00;;;;;;5041543;28;20409;-76
2021/06/23 02:48:13;;;;;;;8.83;5.43;;;16.70;1.00;;;;;;5055563;28;20432;-76
2021/06/23 02:50:59;;;;;;;15.80;6.20;;;16.80;1.00;;;;;;5055095;28;20438;-74
2021/06/23 02:53:29;;;;;;;8.73;5.40;;;16.80;1.00;;;;;;5065213;28;20465;-74
2021/06/23 02:55:56;;;;;;;12.23;6.30;;;16.80;1.00;;;;;;5054133;28;20429;-74
2021/06/23 02:58:31;;;;;;;11.90;6.00;;;16.80;1.00;;;;;;5054489;28;20386;-76
2021/06/23 03:01:01;;;;;;;7.90;5.00;;;16.90;1.00;;;;;;5059990;28;20770;-76
2021/06/23 03:03:29;;;;;;;12.00;4.67;;;16.90;1.00;;;;;;5058876;28;20389;-75
2021/06/23 03:06:03;;;;;;;12.27;6.00;;;16.90;1.00;;;;;;5055536;28;20385;-77
2021/06/23 03:08:30;;;;;;;13.93;5.53;;;16.90;1.00;;;;;;5074453;28;20419;-76
2021/06/23 03:10:59;;;;;;;14.90;6.23;;;16.90;1.00;;;;;;5074284;28;20475;-74
2021/06/23 03:13:35;;;;;;;11.87;5.43;;;16.90;1.00;;;;;;5065214;28;20890;-74
2021/06/23 03:16:02;;;;;;;15.20;5.17;;;16.90;1.00;;;;;;5055479;28;20410;-75
2021/06/23 03:18:29;;;;;;;13.53;5.57;;;;;;;;;;5055559;28;20422;-74
2021/06/23 03:20:55;;;;;;;7.20;5.40;;;16.90;1.00;;;;;;5054432;28;20393;-74
2021/06/23 03:23:21;;;;;;;9.00;5.60;;;16.90;1.00;;;;;;5074022;28;20445;-74
2021/06/23 03:25:53;;;;;;;11.93;6.00;;;16.90;1.00;;;;;;5074238;28;20423;-74
2021/06/23 03:28:20;;;;;;;15.83;5.40;;;16.90;1.00;;;;;;5054474;28;20191;-74
2021/06/23 03:30:46;;;;;;;10.10;5.50;;;16.90;1.00;;;;;;5053980;28;20441;-74
2021/06/23 03:33:12;;;;;;;6.67;4.97;;;;;;;;;;5054080;28;20426;-74
2021/06/23 03:39:00;;;;;;;10.20;5.10;;;16.90;1.00;;;;;;5053905;28;20342;-79
2021/06/23 03:41:47;;;;;;;10.37;5.50;;;16.90;1.00;;;;;;5052181;28;20757;-80
2021/06/23 03:44:29;;;;;;;10.33;5.10;;;17.00;1.00;;;;;;5053818;28;20551;-80
2021/06/23 03:47:41;;;;;;;9.50;5.50;;;16.90;1.00;;;;;;5052573;28;20415;-81
2021/06/23 03:56:50;;;;;;;11.63;5.13;;;17.10;1.00;;;;;;5053270;28;20406;-81
2021/06/23 04:03:23;;;;;;;10.77;5.47;;;17.00;1.00;;;;;;5059403;28;20203;-80
2021/06/23 04:06:41;;;;;;;6.97;5.43;;;17.10;1.00;;;;;;5071724;28;20761;-78
2021/06/23 04:09:35;;;;;;;7.23;5.30;;;17.10;1.00;;;;;;5070504;28;20427;-79
2021/06/23 04:15:22;;;;;;;15.70;5.60;;;17.20;1.00;;;;;;5053293;28;20723;-80
2021/06/23 04:18:05;;;;;;;10.40;5.50;;;17.20;1.00;;;;;;5068642;28;20392;-81
2021/06/23 04:20:35;;;;;;;11.80;5.37;;;17.30;1.00;;;;;;5063788;28;20180;-75
2021/06/23 04:23:41;;;;;;;11.53;5.57;;;17.30;1.00;;;;;;5052973;28;20398;-75
2021/06/23 04:29:28;;;;;;;21.53;5.30;;;17.50;1.00;;;;;;5065534;28;20473;-80
2021/06/23 04:42:38;;;;;;;9.87;5.77;;;17.70;1.00;;;;;;5052975;28;20721;-80
2021/06/23 04:45:17;;;;;;;13.57;5.90;;;17.90;1.00;;;;;;5062883;28;20383;-80
2021/06/23 04:51:05;;;;;;;8.30;4.83;;;18.30;1.00;;;;;;5054874;28;20418;-76
2021/06/23 04:54:23;;;;;;;7.73;3.90;;;18.50;1.00;;;;;;5052731;28;20783;-76
2021/06/23 04:56:48;;;;;;;14.50;5.63;;;18.80;1.00;;;;;;5052727;28;20367;-76
2021/06/23 04:59:17;;;;;;;7.40;4.60;;;19.00;1.00;;;;;;5052705;28;20447;-76
2021/06/23 05:01:43;;;;;;;12.30;4.67;;;19.10;99.90;;;;;;5071109;28;20193;-76
2021/06/23 05:04:09;;;;;;;12.30;4.50;;;19.20;99.90;;;;;;5072314;28;20884;-76
2021/06/23 05:06:35;;;;;;;16.20;4.40;;;19.50;99.90;;;;;;5056982;28;20182;-80
2021/06/23 05:09:01;;;;;;;7.97;4.57;;;19.50;99.90;;;;;;5067124;28;20221;-80
2021/06/23 05:11:27;;;;;;;9.43;5.27;;;;;;;;;;5059357;28;20440;-79
2021/06/23 05:13:56;;;;;;;15.80;5.30;;;19.70;99.90;;;;;;5063857;28;20255;-74
2021/06/23 05:16:22;;;;;;;7.77;4.87;;;19.80;99.90;;;;;;5072548;28;20394;-74
2021/06/23 05:18:54;;;;;;;8.03;4.60;;;19.80;99.90;;;;;;5073259;28;20428;-74
2021/06/23 05:21:20;;;;;;;8.83;4.30;;;19.90;99.90;;;;;;5064950;28;20168;-74
2021/06/23 05:23:46;;;;;;;11.83;4.83;;;19.90;99.90;;;;;;5056523;28;20753;-74
2021/06/23 05:26:12;;;;;;;9.30;5.40;;;19.80;99.90;;;;;;5056411;28;20408;-75
2021/06/23 05:28:38;;;;;;;15.17;6.20;;;19.80;99.90;;;;;;5064291;28;20613;-74
2021/06/23 05:31:05;;;;;;;11.00;5.43;;;19.70;99.90;;;;;;5059446;28;20435;-74
2021/06/23 05:33:31;;;;;;;8.63;5.37;;;19.70;99.90;;;;;;5057795;28;20495;-74
2021/06/23 05:35:56;;;;;;;11.13;5.20;;;19.90;99.90;;;;;;5060748;28;20402;-74
2021/06/23 05:38:22;;;;;;;10.67;5.77;;;19.90;99.90;;;;;;5064487;28;20209;-74
2021/06/23 05:40:48;;;;;;;12.90;5.73;;;20.10;99.90;;;;;;5062690;28;20456;-74
2021/06/23 05:43:14;;;;;;;7.03;4.60;;;;;;;;;;5067632;28;20264;-74
2021/06/23 05:45:40;;;;;;;11.40;4.23;;;20.20;99.90;;;;;;5057233;28;20181;-74
2021/06/23 05:48:06;;;;;;;9.90;4.40;;;20.20;99.90;;;;;;5054216;28;20450;-74
2021/06/23 05:50:32;;;;;;;13.00;5.00;;;20.30;99.90;;;;;;5067029;28;20209;-74
2021/06/23 05:52:57;;;;;;;9.27;3.97;;;20.30;99.90;;;;;;5066191;28;20468;-76
2021/06/23 05:55:23;;;;;;;7.63;4.57;;;20.30;99.90;;;;;;5075396;28;20171;-76
2021/06/23 05:57:51;;;;;;;8.60;5.30;;;20.40;99.90;;;;;;5064174;28;20196;-77
2021/06/23 06:00:17;;;;;;;10.80;5.93;;;20.40;99.90;;;;;;5065171;28;20464;-76
2021/06/23 06:02:43;;;;;;;5.93;4.20;;;20.40;99.90;;;;;;5063528;28;20940;-77
2021/06/23 06:05:08;;;;;;;13.40;5.20;;;20.40;99.90;;;;;;5055176;28;20429;-77
2021/06/23 06:07:34;;;;;;;11.10;5.00;;;20.40;99.90;;;;;;5054602;28;20664;-76
2021/06/23 06:10:00;;;;;;;10.10;4.37;;;20.40;99.90;;;;;;5060686;28;20420;-76
2021/06/23 06:12:25;;;;;;;9.93;4.70;;;20.40;99.90;;;;;;5073630;28;20310;-76
2021/06/23 06:14:52;;;;;;;10.10;4.90;;;20.40;99.90;;;;;;5059465;28;20530;-77
2021/06/23 06:17:18;;;;;;;10.47;4.33;;;20.50;99.90;;;;;;5053486;28;20497;-77
2021/06/23 06:19:44;;;;;;;12.53;4.70;;;;;;;;;;5052803;28;20991;-76
2021/06/23 06:22:10;;;;;;;9.67;4.67;;;20.40;99.90;;;;;;5054771;28;20499;-78
2021/06/23 06:24:41;;;;;;;8.83;4.70;;;20.30;99.90;;;;;;5053937;28;20406;-77
2021/06/23 06:27:07;;;;;;;8.90;4.57;;;20.30;99.90;;;;;;5053120;28;20175;-77
2021/06/23 06:29:33;;;;;;;12.40;4.90;;;20.30;99.90;;;;;;5054037;28;20537;-76
2021/06/23 06:31:59;;;;;;;11.20;4.73;;;20.20;99.90;;;;;;5059690;28;20802;-77
2021/06/23 06:34:24;;;;;;;11.57;5.00;;;20.10;99.90;;;;;;5064948;28;20172;-76
2021/06/23 06:36:50;;;;;;;9.80;5.37;;;20.00;99.90;;;;;;5074365;28;20395;-77
2021/06/23 06:39:16;;;;;;;10.53;4.83;;;20.00;99.90;;;;;;5073092;28;20179;-76
2021/06/23 06:41:41;;;;;;;10.23;5.50;;;20.00;99.90;;;;;;5073690;28;20162;-76
2021/06/23 06:44:07;;;;;;;12.33;5.20;;;19.90;99.90;;;;;;5074088;28;20524;-76
2021/06/23 06:46:33;;;;;;;12.23;5.40;;;19.90;99.90;;;;;;5073991;28;20166;-76
2021/06/23 06:48:59;;;;;;;7.60;4.87;;;;;;;;;;5073876;28;20183;-77
2021/06/23 06:51:30;;;;;;;6.70;4.43;;;20.10;99.90;;;;;;5073923;28;20178;-75
2021/06/23 06:53:56;;;;;;;8.53;4.63;;;;;;;;;;5055871;28;20422;-75
2021/06/23 06:56:21;;;;;;;8.47;5.10;;;20.20;99.90;;;;;;5053878;28;20410;-74
2021/06/23 06:58:47;;;;;;;12.90;5.17;;;20.30;99.90;;;;;;5053246;28;20403;-74
2021/06/23 07:01:13;;;;;;;11.77;5.00;;;20.40;99.90;;;;;;5053686;28;20171;-74
2021/06/23 07:03:38;;;;;;;10.17;5.20;;;20.40;99.90;;;;;;5053320;28;20185;-75
2021/06/23 07:06:04;;;;;;;14.93;5.27;;;20.40;99.90;;;;;;5070048;28;20189;-74
2021/06/23 07:08:30;;;;;;;8.50;4.87;;;20.50;99.90;;;;;;5073708;28;20557;-76
2021/06/23 07:10:55;;;;;;;10.10;5.23;;;20.50;99.90;;;;;;5064353;28;20502;-76
2021/06/23 07:13:21;;;;;;;9.70;5.10;;;20.60;99.90;;;;;;5053945;28;20157;-76
2021/06/23 07:15:47;;;;;;;9.37;5.70;;;20.70;99.90;;;;;;5062569;28;20178;-76
2021/06/23 07:18:13;;;;;;;13.90;5.27;;;20.70;99.90;;;;;;5073042;28;20168;-76
2021/06/23 07:20:38;;;;;;;8.50;5.13;;;20.80;99.90;;;;;;5054504;28;20180;-77
2021/06/23 07:23:04;;;;;;;7.30;5.40;;;;;;;;;;5053503;28;20161;-77
2021/06/23 07:25:30;;;;;;;10.07;5.73;;;20.70;99.90;;;;;;5054234;28;20498;-77
2021/06/23 07:27:55;;;;;;;18.90;4.83;;;20.70;99.90;;;;;;5052889;28;20450;-77
2021/06/23 07:30:21;;;;;;;11.13;5.73;;;20.80;99.90;;;;;;5053955;28;20183;-77
2021/06/23 07:32:54;;;;;;;9.90;5.67;;;20.80;99.90;;;;;;5053714;28;20191;-77
2021/06/23 07:38:07;;;;;;;18.20;4.63;;;20.90;99.90;;;;;;5054154;28;20422;-74
2021/06/23 07:43:20;;;;;;;6.53;5.10;;;21.00;99.90;;;;;;5052117;28;20871;-74
2021/06/23 07:45:49;;;;;;;7.13;4.60;;;21.00;99.90;;;;;;5052747;28;20874;-74
2021/06/23 07:48:15;;;;;;;6.27;5.13;;;21.20;99.90;;;;;;5053616;28;20425;-74
2021/06/23 07:50:51;;;;;;;8.53;5.10;;;21.30;99.90;;;;;;5053544;28;20782;-74
2021/06/23 07:56:07;;;;;;;9.27;5.50;;;21.50;99.90;;;;;;5052562;28;20415;-77
2021/06/23 08:09:31;;;;;;;14.73;5.30;;;22.00;99.90;;;;;;5052463;28;20455;-77
2021/06/23 08:14:38;;;;;;;9.10;5.23;;;22.00;99.90;;;;;;5052943;28;20389;-77
2021/06/23 08:17:04;;;;;;;6.90;4.83;;;22.20;99.90;;;;;;5052772;28;20446;-77
2021/06/23 08:19:30;;;;;;;11.30;5.13;;;22.20;99.90;;;;;;5051563;28;20391;-77
2021/06/23 08:21:56;;;;;;;7.30;4.73;;;22.30;99.90;;;;;;5052493;28;20372;-77
2021/06/23 08:24:22;;;;;;;6.00;5.00;;;;;;;;;;5052403;28;20171;-74
2021/06/23 08:26:48;;;;;;;9.10;5.53;;;22.30;99.90;;;;;;5052349;28;20165;-74
2021/06/23 08:29:14;;;;;;;7.37;5.10;;;22.10;99.90;;;;;;5051852;28;20448;-74
2021/06/23 08:31:39;;;;;;;7.57;5.10;;;22.30;99.90;;;;;;5052202;28;20198;-74
2021/06/23 08:34:05;;;;;;;6.23;4.87;;;22.20;99.90;;;;;;5052078;28;20158;-74
2021/06/23 08:36:31;;;;;;;8.30;4.73;;;22.30;99.90;;;;;;5051829;28;20155;-74
2021/06/23 08:38:56;;;;;;;7.07;4.70;;;22.30;99.90;;;;;;5052434;28;20156;-74
2021/06/23 08:41:26;;;;;;;8.20;5.10;;;22.20;99.90;;;;;;5052254;28;20163;-74
2021/06/23 08:43:56;;;;;;;10.57;4.70;;;22.30;99.90;;;;;;5052708;28;20155;-74
2021/06/23 08:46:22;;;;;;;5.40;4.60;;;22.40;99.90;;;;;;5051504;28;20991;-74
2021/06/23 08:48:48;;;;;;;7.20;4.80;;;22.60;99.90;;;;;;5052022;28;20463;-74
2021/06/23 08:51:14;;;;;;;7.23;5.30;;;22.60;99.90;;;;;;5052015;28;20965;-74
2021/06/23 08:53:40;;;;;;;6.43;4.27;;;;;;;;;;5052918;28;20449;-74
2021/06/23 08:56:07;;;;;;;10.40;5.93;;;22.90;99.90;;;;;;5055753;28;20170;-74
2021/06/23 08:58:33;;;;;;;6.93;5.80;;;23.00;99.90;;;;;;5056123;28;20372;-74
2021/06/23 09:00:59;;;;;;;11.30;6.07;;;23.10;99.90;;;;;;5065247;28;21138;-74
2021/06/23 09:06:47;;;;;;;16.20;4.53;;;23.40;99.90;;;;;;5057434;28;20927;-79
2021/06/23 09:09:31;;;;;;;12.63;4.40;;;23.50;99.90;;;;;;5056415;28;20493;-74
2021/06/23 09:12:14;;;;;;;5.40;4.70;;;23.50;99.90;;;;;;5067812;28;20171;-74
2021/06/23 09:14:40;;;;;;;7.50;5.17;;;23.30;99.90;;;;;;5069474;28;20450;-76
2021/06/23 09:17:17;;;;;;;5.27;4.37;;;23.50;99.90;;;;;;5062550;28;20407;-74
2021/06/23 09:19:46;;;;;;;8.00;4.93;;;23.60;99.90;;;;;;5062278;28;20172;-78
2021/06/23 09:25:47;;;;;;;7.37;5.90;;;23.60;99.90;;;;;;5056006;28;20393;-78
2021/06/23 09:35:47;;;;;;;11.33;4.90;;;24.60;99.90;;;;;;5056035;28;20477;-78
2021/06/23 09:41:39;;;;;;;8.17;5.30;;;25.10;99.90;;;;;;5075824;28;20429;-78
2021/06/23 09:44:08;;;;;;;7.70;4.90;;;25.10;99.90;;;;;;5075109;28;20506;-77
2021/06/23 09:46:48;;;;;;;12.53;5.10;;;25.20;99.90;;;;;;5075581;28;20407;-78
2021/06/23 09:49:27;;;;;;;10.00;5.27;;;25.20;99.90;;;;;;5075619;28;20455;-78
2021/06/23 09:52:10;;;;;;;10.33;5.70;;;25.10;99.90;;;;;;5075877;28;20393;-78
2021/06/23 09:58:21;;;;;;;5.33;4.10;;;25.20;99.90;;;;;;5054994;28;20819;-79
2021/06/23 10:01:11;;;;;;;8.57;4.87;;;25.40;99.90;;;;;;5055679;28;20385;-77
2021/06/23 10:04:07;;;;;;;6.50;5.20;;;25.60;99.90;;;;;;5069982;28;20432;-77
2021/06/23 10:06:45;;;;;;;8.73;5.33;;;25.90;99.90;;;;;;5074831;28;20720;-77
2021/06/23 10:09:24;;;;;;;9.43;5.33;;;26.20;99.90;;;;;;5055406;28;20442;-73
2021/06/23 10:11:55;;;;;;;5.60;4.70;;;26.20;99.90;;;;;;5055481;28;20922;-74
2021/06/23 10:14:23;;;;;;;5.40;4.13;;;26.20;99.90;;;;;;5055361;28;20455;-73
2021/06/23 10:16:52;;;;;;;7.50;4.90;;;26.20;99.90;;;;;;5054944;28;20451;-74
2021/06/23 10:19:18;;;;;;;5.00;4.50;;;26.10;99.90;;;;;;5055049;28;20438;-73
2021/06/23 10:21:46;;;;;;;9.03;4.50;;;25.80;99.90;;;;;;5055587;28;20418;-73
2021/06/23 10:24:14;;;;;;;8.40;4.40;;;25.70;99.90;;;;;;5055399;28;20771;-77
2021/06/23 10:26:46;;;;;;;7.77;5.47;;;25.80;99.90;;;;;;5055122;28;20964;-77
2021/06/23 10:29:35;;;;;;;5.97;4.70;;;25.90;99.90;;;;;;5055270;28;20456;-77
2021/06/23 10:32:03;;;;;;;7.37;4.80;;;26.10;99.90;;;;;;5062985;28;20404;-77
2021/06/23 10:34:59;;;;;;;5.83;4.20;;;26.40;99.90;;;;;;5053377;28;20836;-77
2021/06/23 10:37:38;;;;;;;4.60;3.93;;;26.40;99.90;;;;;;5055181;28;20398;-77
2021/06/23 10:40:12;;;;;;;6.40;4.37;;;27.00;99.90;;;;;;5058086;28;20436;-74
2021/06/23 10:42:38;;;;;;;4.77;4.20;;;27.10;99.90;;;;;;5059070;28;20825;-73
2021/06/23 10:45:06;;;;;;;10.40;5.70;;;27.10;99.90;;;;;;5054496;28;20421;-74
2021/06/23 10:47:34;;;;;;;6.40;5.17;;;27.30;99.90;;;;;;5054624;28;20846;-73
2021/06/23 10:50:00;;;;;;;14.20;4.80;;;27.40;99.90;;;;;;5054527;28;20485;-73
2021/06/23 10:52:27;;;;;;;8.93;5.10;;;27.20;99.90;;;;;;5056799;28;20843;-73
2021/06/23 10:55:29;;;;;;;4.50;4.10;;;27.20;99.90;;;;;;5068546;28;20729;-74
2021/06/23 10:58:02;;;;;;;9.50;4.30;;;27.10;99.90;;;;;;5054154;28;20454;-73
2021/06/23 11:00:46;;;;;;;7.83;4.73;;;27.30;99.90;;;;;;5054313;28;20403;-75
2021/06/23 11:06:53;;;;;;;7.73;4.13;;;27.70;99.90;;;;;;5073921;28;20498;-75
2021/06/23 11:09:36;;;;;;;6.40;3.83;;;27.70;99.90;;;;;;5074558;28;20934;-75
2021/06/23 11:12:01;;;;;;;5.33;3.80;;;27.70;99.90;;;;;;5073969;28;20486;-77
2021/06/23 11:15:13;;;;;;;5.63;3.90;;;27.90;99.90;;;;;;5068170;28;20514;-75
2021/06/23 11:21:05;;;;;;;3.87;3.57;;;27.90;99.90;;;;;;5066938;28;20453;-75
2021/06/23 11:24:05;;;;;;;13.00;5.10;;;27.70;99.90;;;;;;5072641;28;20485;-75
2021/06/23 11:26:33;;;;;;;5.43;4.27;;;27.70;99.90;;;;;;5062045;28;20486;-75
2021/06/23 11:29:35;;;;;;;4.50;3.30;;;27.70;99.90;;;;;;5073746;28;20537;-75
2021/06/23 11:35:23;;;;;;;4.50;3.50;;;27.60;99.90;;;;;;5071282;28;20405;-75
2021/06/23 11:37:49;;;;;;;5.50;3.80;;;27.70;99.90;;;;;;5052907;28;20749;-75
2021/06/23 11:40:17;;;;;;;8.40;4.30;;;;;;;;;;5053907;28;20423;-74
2021/06/23 11:42:57;;;;;;;5.10;4.53;;;27.50;99.90;;;;;;5056893;28;20168;-73
2021/06/23 11:45:24;;;;;;;4.63;4.23;;;27.30;99.90;;;;;;5058162;28;20454;-73
2021/06/23 11:47:50;;;;;;;6.80;4.60;;;27.30;99.90;;;;;;5055049;28;20410;-73
2021/06/23 11:50:17;;;;;;;7.10;4.90;;;27.40;99.90;;;;;;5051913;28;20774;-73
2021/06/23 11:52:42;;;;;;;7.00;4.47;;;27.70;99.90;;;;;;5056850;28;20417;-73
2021/06/23 11:55:13;;;;;;;5.03;4.27;;;28.00;99.90;;;;;;5072295;28;20509;-74
2021/06/23 11:57:39;;;;;;;5.57;4.10;;;28.10;99.90;;;;;;5065217;28;20189;-75
2021/06/23 12:00:06;;;;;;;8.77;3.83;;;28.40;99.90;;;;;;5056359;28;20409;-75
2021/06/23 12:02:31;;;;;;;10.40;4.07;;;28.60;99.90;;;;;;5051952;28;20935;-72
2021/06/23 12:04:57;;;;;;;5.03;4.00;;;28.60;99.90;;;;;;5062433;28;20434;-81
2021/06/23 12:07:24;;;;;;;4.47;4.00;;;28.40;99.90;;;;;;5072697;28;20172;-82
2021/06/23 12:09:50;;;;;;;4.07;3.33;;;;;;;;;;5060459;28;20256;-81
2021/06/23 12:12:17;;;;;;;3.43;3.17;;;28.80;99.90;;;;;;5053237;28;20770;-82
2021/06/23 12:15:23;;;;;;;5.53;3.43;;;29.00;99.90;;;;;;5058721;28;20468;-78
2021/06/23 12:17:51;;;;;;;14.03;5.20;;;29.20;99.90;;;;;;5068824;28;20843;-74
2021/06/23 12:20:17;;;;;;;6.80;3.83;;;29.30;99.90;;;;;;5064949;28;20441;-73
2021/06/23 12:22:55;;;;;;;7.37;3.60;;;29.20;99.90;;;;;;5072768;28;20395;-75
2021/06/23 12:26:05;;;;;;;3.83;3.50;;;29.10;99.90;;;;;;5071049;28;20415;-74
2021/06/23 12:28:31;;;;;;;5.80;3.43;;;;;;;;;;5055136;28;20507;-85
2021/06/23 12:34:19;;;;;;;4.67;3.50;;;;;;;;;;5052900;28;20946;-86
2021/06/23 12:36:54;;;;;;;9.97;3.93;;;28.60;99.90;;;;;;5054487;28;20496;-84
2021/06/23 12:40:11;;;;;;;4.13;3.47;;;28.40;99.90;;;;;;5068198;28;20420;-78
2021/06/23 12:42:54;;;;;;;3.40;2.93;;;28.40;99.90;;;;;;5052911;28;20389;-81
2021/06/23 12:45:21;;;;;;;6.27;3.37;;;28.50;99.90;;;;;;5052627;28;20412;-80
2021/06/23 12:48:18;;;;;;;4.90;3.27;;;28.30;99.90;;;;;;5052317;28;20444;-78
2021/06/23 12:50:48;;;;;;;7.43;3.23;;;28.40;99.90;;;;;;5052691;28;20416;-78
2021/06/23 12:53:16;;;;;;;3.77;3.30;;;28.20;99.90;;;;;;5052422;28;20412;-79
2021/06/23 12:59:17;;;;;;;4.37;3.47;;;28.00;99.90;;;;;;5072491;28;20443;-79
2021/06/23 13:01:44;;;;;;;5.80;3.70;;;27.60;99.90;;;;;;5072255;28;20445;-79
2021/06/23 13:04:35;;;;;;;5.90;3.40;;;27.50;99.90;;;;;;5068835;28;20497;-79
2021/06/23 13:07:01;;;;;;;5.93;3.80;;;27.40;99.90;;;;;;5052342;28;20399;-73
2021/06/23 13:10:11;;;;;;;3.80;3.20;;;27.40;99.90;;;;;;5063734;28;20461;-79
2021/06/23 13:12:37;;;;;;;4.60;3.43;;;27.40;99.90;;;;;;5063003;28;20168;-88
2021/06/23 13:15:04;;;;;;;6.43;3.73;;;27.30;99.90;;;;;;5055372;28;20399;-88
2021/06/23 13:17:30;;;;;;;5.77;3.77;;;27.30;99.90;;;;;;5073467;28;20158;-87
2021/06/23 13:20:29;;;;;;;7.90;4.57;;;27.10;99.90;;;;;;5073115;28;20473;-88
2021/06/23 13:23:18;;;;;;;4.63;4.10;;;27.10;99.90;;;;;;5066223;28;20183;-88
2021/06/23 13:32:10;;;;;;;5.70;3.47;;;27.00;99.90;;;;;;5073066;28;20472;-86
2021/06/23 13:34:41;;;;;;;4.10;3.60;;;27.20;99.90;;;;;;5071231;28;20409;-75
2021/06/23 13:37:07;;;;;;;4.20;3.80;;;27.50;99.90;;;;;;5069415;28;20470;-75
2021/06/23 13:39:33;;;;;;;12.30;4.80;;;27.70;99.90;;;;;;5072199;28;20477;-75
2021/06/23 13:42:06;;;;;;;8.40;3.70;;;28.00;99.90;;;;;;5076331;28;20246;-81
2021/06/23 13:44:48;;;;;;;15.27;7.27;;;28.30;99.90;;;;;;5054643;28;20214;-81
2021/06/23 13:57:19;;;;;;;9.97;4.90;;;;;;;;;;5064176;28;20484;-73
2021/06/23 13:59:45;;;;;;;5.57;3.90;;;29.30;99.90;;;;;;5062377;28;20754;-73
2021/06/23 14:02:11;;;;;;;9.60;3.63;;;29.50;99.90;;;;;;5073362;28;20446;-73
2021/06/23 14:04:36;;;;;;;6.70;4.23;;;29.70;99.90;;;;;;5057528;28;20189;-73
2021/06/23 14:07:02;;;;;;;6.10;3.53;;;29.60;99.90;;;;;;5059065;28;20166;-73
2021/06/23 14:09:28;;;;;;;7.93;4.30;;;29.70;99.90;;;;;;5055114;28;20630;-73
2021/06/23 14:11:54;;;;;;;5.20;3.77;;;29.80;99.90;;;;;;5055555;28;20167;-79
2021/06/23 14:17:42;;;;;;;3.63;3.30;;;30.10;99.90;;;;;;5054830;28;20194;-80
2021/06/23 14:23:36;;;;;;;5.40;3.47;;;30.70;99.90;;;;;;5054746;28;20214;-78
2021/06/23 14:26:42;;;;;;;5.90;3.63;;;30.70;99.90;;;;;;5054835;28;20835;-80
2021/06/23 14:29:08;;;;;;;3.83;2.97;;;31.00;99.90;;;;;;5054605;28;20792;-74
2021/06/23 14:31:34;;;;;;;3.50;3.20;;;31.30;99.90;;;;;;5054906;28;20410;-74
2021/06/23 14:34:00;;;;;;;3.90;3.10;;;31.60;99.90;;;;;;5074135;28;20171;-74
2021/06/23 14:36:25;;;;;;;12.20;4.33;;;31.30;99.90;;;;;;5074808;28;20170;-75
2021/06/23 14:38:51;;;;;;;11.23;3.27;;;31.00;99.90;;;;;;5074822;28;20155;-74
2021/06/23 14:41:19;;;;;;;3.10;2.90;;;30.90;99.90;;;;;;5067239;28;20281;-74
2021/06/23 14:43:47;;;;;;;3.10;2.90;;;30.80;99.90;;;;;;5075300;28;20567;-76
2021/06/23 14:46:23;;;;;;;4.03;3.10;;;30.70;99.90;;;;;;5074635;28;20393;-75
2021/06/23 14:49:11;;;;;;;5.53;3.60;;;30.60;99.90;;;;;;5074266;28;20932;-76
2021/06/23 14:51:37;;;;;;;4.57;3.23;;;30.30;99.90;;;;;;5073733;28;20740;-75
2021/06/23 14:54:06;;;;;;;11.40;3.87;;;30.20;99.90;;;;;;5066900;28;20436;-75
2021/06/23 14:56:32;;;;;;;6.00;3.40;;;;;;;;;;5054438;28;20487;-75
2021/06/23 14:59:06;;;;;;;9.10;3.70;;;29.50;99.90;;;;;;5068555;28;20415;-75
2021/06/23 15:01:32;;;;;;;10.33;3.50;;;29.40;99.90;;;;;;5074266;28;20414;-75
2021/06/23 15:03:58;;;;;;;5.13;3.37;;;29.30;99.90;;;;;;5058664;28;20833;-75
2021/06/23 15:06:35;;;;;;;4.40;3.33;;;29.50;99.90;;;;;;5074011;28;20681;-76
2021/06/23 15:09:01;;;;;;;6.90;3.60;;;29.90;99.90;;;;;;5073779;28;20192;-75
2021/06/23 15:11:27;;;;;;;5.87;3.10;;;31.00;99.90;;;;;;5073908;28;20887;-74
2021/06/23 15:13:54;;;;;;;3.10;2.83;;;32.70;99.90;;;;;;5074378;28;20159;-76
2021/06/23 15:16:21;;;;;;;5.70;3.10;;;34.50;99.90;;;;;;5073799;28;20148;-75